Time;durP1;ratioP1;P1;durP2;ratioP2;P2;SDS_P1;SDS_P2;PMS_P1;PMS_P2;Temp;Humidity;BMP_temperature;BMP_pressure;BME280_temperature;BME280_humidity;BME280_pressure;Samples;Min_cycle;Max_cycle;Signal;HPM_P1;HPM_P2
2022/04/05 00:00:28;;;;;;;;;;;;;;;13.02;42.52;99143.63;4941734;28;97864;-61
2022/04/05 00:02:57;;;;;;;;;;;;;;;13.01;42.70;99142.03;4942031;28;98990;-62
2022/04/05 00:05:23;;;;;;;;;;;;;;;12.99;42.67;99145.03;4942139;28;98323;-61
2022/04/05 00:07:49;;;;;;;;;;;;;;;12.99;42.72;99136.13;4949205;28;125544;-61
2022/04/05 00:10:15;;;;;;;;;;;;;;;12.98;42.56;99132.63;4961564;28;98265;-61
2022/04/05 00:12:41;;;;;;;;;;;;;;;12.98;42.55;99143.47;4959874;28;128693;-61
2022/04/05 00:15:09;;;;;;;;;;;;;;;12.97;42.75;99139.16;4944743;28;98390;-61
2022/04/05 00:17:36;;;;;;;;;;;;;;;12.97;42.74;99133.75;4940085;28;98782;-62
2022/04/05 00:20:02;;;;;;;;;;;;;;;12.97;42.71;99130.25;4941943;28;111198;-61
2022/04/05 00:22:28;;;;;;;;;;;;;;;12.97;42.75;99122.94;4941630;28;122512;-61
2022/04/05 00:24:54;;;;;;;;;;;;;;;12.95;42.99;99125.16;4941439;28;128029;-62
2022/04/05 00:27:19;;;;;;;;;;;;;;;12.96;42.82;99142.16;4940967;28;127315;-62
2022/04/05 00:29:45;;;;;;;;;;;;;;;12.96;43.05;99137.56;4941759;28;117626;-61
2022/04/05 00:32:12;;;;;;;;;;;;;;;12.95;43.07;99132.47;4941945;28;98730;-61
2022/04/05 00:34:38;;;;;;;;;;;;;;;12.95;42.96;99135.97;4942273;28;98676;-61
2022/04/05 00:37:04;;;;;;;;;;;;;;;12.95;43.17;99127.06;4941324;28;124855;-61
2022/04/05 00:39:30;;;;;;;;;;;;;;;12.95;43.23;99132.47;4940986;28;117178;-61
2022/04/05 00:41:56;;;;;;;;;;;;;;;12.95;43.35;99121.66;4955904;28;98399;-61
2022/04/05 00:44:23;;;;;;;;;;;;;;;12.94;43.39;99123.56;4941244;28;98712;-61
2022/04/05 00:46:49;;;;;;;;;;;;;;;12.93;43.14;99104.94;4940270;28;123442;-61
2022/04/05 00:49:16;;;;;;;;;;;;;;;12.93;43.16;99113.03;4936710;28;114876;-61
2022/04/05 00:51:42;;;;;;;;;;;;;;;12.93;43.24;99108.47;4927230;28;98393;-62
2022/04/05 00:54:09;;;;;;;;;;;;;;;12.92;43.40;99114.16;4940992;28;127009;-61
2022/04/05 00:56:35;;;;;;;;;;;;;;;12.91;43.43;99116.06;4938973;28;115180;-62
2022/04/05 00:59:01;;;;;;;;;;;;;;;12.90;43.18;99122.59;4942316;28;99268;-62
2022/04/05 01:01:28;;;;;;;;;;;;;;;12.91;43.54;99117.97;4942566;28;97945;-62
2022/04/05 01:03:54;;;;;;;;;;;;;;;12.90;43.58;99130.72;4941322;28;98327;-62
2022/04/05 01:06:24;;;;;;;;;;;;;;;12.90;43.31;99129.91;4941426;28;126877;-62
2022/04/05 01:08:50;;;;;;;;;;;;;;;12.89;43.74;99125.59;4956066;28;97982;-62
2022/04/05 01:11:16;;;;;;;;;;;;;;;12.88;43.72;99124.81;4940261;28;127112;-62
2022/04/05 01:13:42;;;;;;;;;;;;;;;12.88;43.69;99119.41;4941615;28;100552;-61
2022/04/05 01:16:09;;;;;;;;;;;;;;;12.89;43.87;99136.41;4941258;28;98089;-62
2022/04/05 01:18:35;;;;;;;;;;;;;;;12.87;43.86;99130.53;4938493;28;115807;-62
2022/04/05 01:21:01;;;;;;;;;;;;;;;12.86;43.73;99124.34;4941475;28;108518;-61
2022/04/05 01:23:28;;;;;;;;;;;;;;;12.86;43.79;99127.03;4956945;28;98544;-62
2022/04/05 01:25:55;;;;;;;;;;;;;;;12.86;43.84;99115.44;4940270;28;127400;-62
2022/04/05 01:28:20;;;;;;;;;;;;;;;12.84;43.87;99121.13;4940610;28;97914;-61
2022/04/05 01:30:46;;;;;;;;;;;;;;;12.85;43.93;99124.63;4940830;28;98678;-61
2022/04/05 01:33:13;;;;;;;;;;;;;;;12.83;43.97;99122.25;4940492;28;98975;-62
2022/04/05 01:35:39;;;;;;;;;;;;;;;12.83;43.88;99124.16;4938526;28;124275;-62
2022/04/05 01:38:09;;;;;;;;;;;;;;;12.82;44.08;99122.59;4941023;28;97895;-62
2022/04/05 01:40:37;;;;;;;;;;;;;;;12.81;44.13;99119.09;4953953;28;119661;-61
2022/04/05 01:43:03;;;;;;;;;;;;;;;12.80;44.17;99127.50;4941146;28;98684;-61
2022/04/05 01:45:29;;;;;;;;;;;;;;;12.80;43.74;99117.47;4941236;28;97654;-61
2022/04/05 01:47:55;;;;;;;;;;;;;;;12.80;43.96;99130.19;4940551;28;101237;-61
2022/04/05 01:50:21;;;;;;;;;;;;;;;12.78;44.25;99122.41;4942466;28;98459;-61
2022/04/05 01:52:47;;;;;;;;;;;;;;;12.77;43.99;99124.31;4939780;28;125265;-61
2022/04/05 01:55:13;;;;;;;;;;;;;;;12.78;44.08;99130.53;4939742;28;126964;-62
2022/04/05 01:57:39;;;;;;;;;;;;;;;12.76;44.09;99125.41;4939283;28;115833;-62
2022/04/05 02:00:06;;;;;;;;;;;;;;;12.75;44.34;99121.13;4940302;28;128458;-61
2022/04/05 02:02:32;;;;;;;;;;;;;;;12.74;44.16;99118.75;4955446;28;98995;-61
2022/04/05 02:04:58;;;;;;;;;;;;;;;12.74;44.20;99121.44;4939895;28;127397;-62
2022/04/05 02:07:24;;;;;;;;;;;;;;;12.73;44.20;99120.66;4944413;28;110496;-61
2022/04/05 02:09:50;;;;;;;;;;;;;;;12.71;44.27;99122.88;4960347;28;98991;-62
2022/04/05 02:12:16;;;;;;;;;;;;;;;12.73;44.29;99127.94;4960562;28;98425;-62
2022/04/05 02:14:42;;;;;;;;;;;;;;;12.70;44.27;99113.16;4944779;28;98896;-61
2022/04/05 02:17:08;;;;;;;;;;;;;;;12.70;44.27;99117.78;4939732;28;116953;-61
2022/04/05 02:19:36;;;;;;;;;;;;;;;12.69;44.27;99117.00;4955066;28;98692;-61
2022/04/05 02:22:02;;;;;;;;;;;;;;;12.68;44.23;99117.28;4940354;28;98732;-61
2022/04/05 02:24:28;;;;;;;;;;;;;;;12.68;44.59;99114.56;4942131;28;125163;-61
2022/04/05 02:26:54;;;;;;;;;;;;;;;12.68;44.52;99120.00;4943123;28;117154;-61
2022/04/05 02:29:20;;;;;;;;;;;;;;;12.67;44.52;99115.69;4943397;28;113369;-61
2022/04/05 02:31:46;;;;;;;;;;;;;;;12.65;44.54;99112.50;4943854;28;98188;-61
2022/04/05 02:34:12;;;;;;;;;;;;;;;12.64;44.57;99117.09;4941016;28;126752;-61
2022/04/05 02:36:38;;;;;;;;;;;;;;;12.64;44.60;99125.22;4944859;28;97778;-61
2022/04/05 02:39:04;;;;;;;;;;;;;;;12.63;44.76;99118.22;4944268;28;98266;-62
2022/04/05 02:41:30;;;;;;;;;;;;;;;12.63;44.62;99112.81;4943817;28;98562;-61
2022/04/05 02:43:58;;;;;;;;;;;;;;;12.62;44.85;99111.25;4944489;28;98232;-62
2022/04/05 02:46:25;;;;;;;;;;;;;;;12.62;44.88;99111.25;4944228;28;98275;-61
2022/04/05 02:48:54;;;;;;;;;;;;;;;12.61;44.71;99116.94;4943818;28;98785;-61
2022/04/05 02:51:20;;;;;;;;;;;;;;;12.61;44.51;99112.31;4943149;28;98024;-61
2022/04/05 02:53:46;;;;;;;;;;;;;;;12.59;44.73;99117.25;4943335;28;123227;-61
2022/04/05 02:56:13;;;;;;;;;;;;;;;12.59;44.88;99113.75;4943253;28;97893;-61
2022/04/05 02:58:38;;;;;;;;;;;;;;;12.59;44.74;99116.47;4943340;28;98942;-61
2022/04/05 03:01:05;;;;;;;;;;;;;;;12.58;44.79;99129.19;4942314;28;128068;-61
2022/04/05 03:03:32;;;;;;;;;;;;;;;12.58;44.74;99117.59;4943767;28;98149;-61
2022/04/05 03:05:58;;;;;;;;;;;;;;;12.57;44.78;99105.94;4943861;28;97794;-61
2022/04/05 03:08:24;;;;;;;;;;;;;;;12.56;44.73;99108.97;4950102;28;119660;-61
2022/04/05 03:10:50;;;;;;;;;;;;;;;12.55;44.87;99104.69;4942931;28;99258;-61
2022/04/05 03:13:16;;;;;;;;;;;;;;;12.54;45.09;99112.00;4942499;28;124943;-62
2022/04/05 03:15:42;;;;;;;;;;;;;;;12.53;44.95;99113.88;4942622;28;115835;-61
2022/04/05 03:18:08;;;;;;;;;;;;;;;12.52;45.11;99120.41;4942556;28;127663;-61
2022/04/05 03:20:34;;;;;;;;;;;;;;;12.52;45.20;99122.31;4942236;28;128989;-62
2022/04/05 03:23:00;;;;;;;;;;;;;;;12.52;45.08;99116.91;4942782;28;97639;-61
2022/04/05 03:25:27;;;;;;;;;;;;;;;12.51;45.15;99115.31;4944368;28;97810;-62
2022/04/05 03:27:53;;;;;;;;;;;;;;;12.51;45.05;99113.41;4941501;28;127072;-62
2022/04/05 03:30:19;;;;;;;;;;;;;;;12.50;45.26;99113.75;4943493;28;99473;-61
2022/04/05 03:32:45;;;;;;;;;;;;;;;12.50;45.06;99105.63;4942497;28;98258;-61
2022/04/05 03:35:11;;;;;;;;;;;;;;;12.50;45.31;99119.94;4942019;28;98128;-61
2022/04/05 03:37:37;;;;;;;;;;;;;;;12.49;45.17;99107.50;4942618;28;98222;-61
2022/04/05 03:40:04;;;;;;;;;;;;;;;12.49;45.29;99099.41;4941334;28;127298;-61
2022/04/05 03:42:30;;;;;;;;;;;;;;;12.48;45.21;99105.94;4942149;28;116781;-61
2022/04/05 03:44:56;;;;;;;;;;;;;;;12.49;45.49;99120.22;4942894;28;97872;-61
2022/04/05 03:47:23;;;;;;;;;;;;;;;12.49;45.51;99106.72;4942383;28;104258;-62
2022/04/05 03:49:49;;;;;;;;;;;;;;;12.48;45.66;99108.63;4943105;28;99538;-62
2022/04/05 03:52:15;;;;;;;;;;;;;;;12.48;45.25;99105.94;4943058;28;97800;-61
2022/04/05 03:54:41;;;;;;;;;;;;;;;12.47;45.46;99109.75;4942645;28;113329;-61
2022/04/05 03:57:06;;;;;;;;;;;;;;;12.48;45.50;99105.13;4940433;28;121328;-61
2022/04/05 03:59:32;;;;;;;;;;;;;;;12.47;45.48;99109.75;4942158;28;115371;-61
2022/04/05 04:01:58;;;;;;;;;;;;;;;12.47;45.61;99117.06;4942113;28;127708;-62
2022/04/05 04:04:24;;;;;;;;;;;;;;;12.46;45.79;99107.38;4943092;28;97958;-61
2022/04/05 04:06:50;;;;;;;;;;;;;;;12.46;45.72;99116.28;4941772;28;98803;-61
2022/04/05 04:09:16;;;;;;;;;;;;;;;12.46;45.44;99126.28;4949393;28;98962;-61
2022/04/05 04:11:44;;;;;;;;;;;;;;;12.45;45.74;99128.16;4940504;28;126492;-61
2022/04/05 04:14:10;;;;;;;;;;;;;;;12.46;45.91;99123.59;4942302;28;97729;-61
2022/04/05 04:16:36;;;;;;;;;;;;;;;12.47;45.76;99119.75;4941594;28;119364;-61
2022/04/05 04:19:02;;;;;;;;;;;;;;;12.46;45.58;99129.78;4941163;28;128965;-62
2022/04/05 04:21:28;;;;;;;;;;;;;;;12.47;45.83;99130.56;4941013;28;109044;-62
2022/04/05 04:23:54;;;;;;;;;;;;;;;12.47;46.03;99130.56;4941330;28;97814;-63
2022/04/05 04:26:20;;;;;;;;;;;;;;;12.47;46.08;99130.56;4938780;28;98229;-61
2022/04/05 04:28:49;;;;;;;;;;;;;;;12.47;45.68;99131.38;4937448;28;128311;-61
2022/04/05 04:31:15;;;;;;;;;;;;;;;12.45;45.98;99138.19;4934686;28;118627;-61
2022/04/05 04:33:41;;;;;;;;;;;;;;;12.47;45.94;99135.97;4941817;28;116867;-61
2022/04/05 04:36:07;;;;;;;;;;;;;;;12.45;46.01;99136.28;4940414;28;128182;-61
2022/04/05 04:38:33;;;;;;;;;;;;;;;12.47;45.97;99138.69;4939305;28;126793;-60
2022/04/05 04:40:59;;;;;;;;;;;;;;;12.48;46.11;99142.97;4938668;28;126665;-61
2022/04/05 04:43:26;;;;;;;;;;;;;;;12.49;46.26;99144.56;4942536;28;116746;-61
2022/04/05 04:45:52;;;;;;;;;;;;;;;12.50;46.19;99148.88;4939649;28;99865;-61
2022/04/05 04:48:19;;;;;;;;;;;;;;;12.50;46.23;99148.88;4941267;28;114425;-61
2022/04/05 04:50:48;;;;;;;;;;;;;;;12.50;46.04;99149.66;4941696;28;98022;-61
2022/04/05 04:53:14;;;;;;;;;;;;;;;12.52;45.92;99146.63;4941504;28;118193;-61
2022/04/05 04:55:40;;;;;;;;;;;;;;;12.52;46.14;99155.53;4940616;28;127043;-61
2022/04/05 04:58:06;;;;;;;;;;;;;;;12.53;46.10;99153.63;4941264;28;122537;-61
2022/04/05 05:00:32;;;;;;;;;;;;;;;12.54;46.33;99155.25;4939124;28;120532;-61
2022/04/05 05:02:58;;;;;;;;;;;;;;;12.54;46.06;99152.53;4940464;28;117887;-61
2022/04/05 05:05:24;;;;;;;;;;;;;;;12.55;46.13;99164.16;4940579;28;128047;-61
2022/04/05 05:07:50;;;;;;;;;;;;;;;12.57;46.35;99161.91;4948093;28;127992;-61
2022/04/05 05:10:17;;;;;;;;;;;;;;;12.58;46.28;99160.84;4940907;28;102941;-61
2022/04/05 05:12:43;;;;;;;;;;;;;;;12.59;46.04;99163.22;4939677;28;98338;-61
2022/04/05 05:15:10;;;;;;;;;;;;;;;12.60;46.13;99164.81;4955713;28;120465;-61
2022/04/05 05:17:36;;;;;;;;;;;;;;;12.63;46.24;99171.50;4939868;28;124476;-61
2022/04/05 05:20:05;;;;;;;;;;;;;;;12.66;46.08;99171.69;4940939;28;126294;-61
2022/04/05 05:22:31;;;;;;;;;;;;;;;12.67;45.93;99180.56;4921075;28;115308;-61
2022/04/05 05:24:57;;;;;;;;;;;;;;;12.67;45.91;99175.97;4921243;28;123629;-61
2022/04/05 05:27:23;;;;;;;;;;;;;;;12.70;45.90;99178.06;4934908;28;128561;-61
2022/04/05 05:29:49;;;;;;;;;;;;;;;12.71;46.00;99176.94;4940976;28;105404;-61
2022/04/05 05:32:15;;;;;;;;;;;;;;;12.73;46.20;99182.03;4941927;28;98313;-61
2022/04/05 05:34:41;;;;;;;;;;;;;;;12.73;46.09;99184.72;4940267;28;127784;-61
2022/04/05 05:37:08;;;;;;;;;;;;;;;12.74;46.29;99194.44;4939390;28;128240;-61
2022/04/05 05:39:37;;;;;;;;;;;;;;;12.73;46.39;99199.06;4941131;28;97894;-61
2022/04/05 05:42:05;;;;;;;;;;;;;;;12.75;46.13;99193.34;4941362;28;97937;-61
2022/04/05 05:44:31;;;;;;;;;;;;;;;12.76;46.30;99201.13;4955913;28;98662;-61
2022/04/05 05:46:57;;;;;;;;;;;;;;;12.77;46.31;99204.63;4940366;28;105271;-61
2022/04/05 05:49:23;;;;;;;;;;;;;;;12.81;46.44;99199.38;4940109;28;127636;-61
2022/04/05 05:51:49;;;;;;;;;;;;;;;12.86;46.49;99199.28;4938069;28;117557;-61
2022/04/05 05:54:16;;;;;;;;;;;;;;;12.89;46.37;99212.97;4921083;28;99121;-61
2022/04/05 05:56:42;;;;;;;;;;;;;;;12.92;46.29;99208.81;4919345;28;126829;-61
2022/04/05 05:59:08;;;;;;;;;;;;;;;12.92;46.41;99216.94;4937764;28;98528;-61
2022/04/05 06:01:34;;;;;;;;;;;;;;;12.93;46.49;99229.34;4939248;28;103911;-61
2022/04/05 06:04:00;;;;;;;;;;;;;;;12.94;46.48;99225.53;4939800;28;127482;-61
2022/04/05 06:06:28;;;;;;;;;;;;;;;12.94;46.63;99225.53;4939119;28;129363;-61
2022/04/05 06:08:55;;;;;;;;;;;;;;;12.96;46.47;99232.22;4948558;28;98403;-61
2022/04/05 06:11:22;;;;;;;;;;;;;;;12.99;46.39;99233.50;4941133;28;98151;-61
2022/04/05 06:13:48;;;;;;;;;;;;;;;13.00;46.65;99238.59;4939876;28;118431;-61
2022/04/05 06:16:14;;;;;;;;;;;;;;;13.01;46.68;99261.06;4940425;28;98335;-61
2022/04/05 06:18:42;;;;;;;;;;;;;;;13.01;46.67;99264.56;4940954;28;97704;-61
2022/04/05 06:21:08;;;;;;;;;;;;;;;13.03;46.79;99256.91;4940749;28;97957;-61
2022/04/05 06:23:34;;;;;;;;;;;;;;;13.05;46.65;99255.78;4939337;28;98899;-61
2022/04/05 06:26:00;;;;;;;;;;;;;;;13.05;46.64;99251.22;4939579;28;121194;-61
2022/04/05 06:28:26;;;;;;;;;;;;;;;13.08;46.91;99260.59;4939037;28;118725;-62
2022/04/05 06:30:52;;;;;;;;;;;;;;;13.09;46.81;99260.28;4939568;28;117715;-61
2022/04/05 06:33:19;;;;;;;;;;;;;;;13.13;46.96;99261.25;4939509;28;128851;-61
2022/04/05 06:35:50;;;;;;;;;;;;;;;13.22;46.73;99255.88;4940166;28;98896;-61
2022/04/05 06:38:16;;;;;;;;;;;;;;;13.22;46.94;99258.59;4934679;28;99430;-61
2022/04/05 06:40:43;;;;;;;;;;;;;;;13.22;46.92;99274.81;4921031;28;97806;-61
2022/04/05 06:43:12;;;;;;;;;;;;;;;13.20;47.24;99290.56;4937822;28;98563;-61
2022/04/05 06:45:38;;;;;;;;;;;;;;;13.17;47.07;99291.19;4940184;28;98967;-61
2022/04/05 06:48:06;;;;;;;;;;;;;;;13.14;47.29;99316.16;4938972;28;127919;-61
2022/04/05 06:50:35;;;;;;;;;;;;;;;13.13;47.42;99325.41;4940717;28;97744;-61
2022/04/05 06:53:01;;;;;;;;;;;;;;;13.12;47.09;99337.31;4936911;28;125053;-61
2022/04/05 06:55:27;;;;;;;;;;;;;;;13.12;47.38;99330.00;4939913;28;98996;-61
2022/04/05 06:57:53;;;;;;;;;;;;;;;13.13;47.28;99341.63;4938456;28;111752;-61
2022/04/05 07:00:22;;;;;;;;;;;;;;;13.14;47.19;99345.94;4940322;28;100654;-61
2022/04/05 07:02:48;;;;;;;;;;;;;;;13.17;47.18;99351.53;4939913;28;98432;-61
2022/04/05 07:05:14;;;;;;;;;;;;;;;13.19;47.13;99343.88;4939505;28;107581;-61
2022/04/05 07:07:39;;;;;;;;;;;;;;;13.18;47.31;99355.03;4939263;28;127403;-61
2022/04/05 07:10:06;;;;;;;;;;;;;;;13.16;47.14;99358.00;4941127;28;116797;-61
2022/04/05 07:12:32;;;;;;;;;;;;;;;13.17;47.06;99358.84;4942560;28;120343;-61
2022/04/05 07:14:58;;;;;;;;;;;;;;;13.18;47.51;99355.81;4939677;28;128385;-61
2022/04/05 07:17:25;;;;;;;;;;;;;;;13.22;47.14;99356.00;4956751;28;125793;-61
2022/04/05 07:19:52;;;;;;;;;;;;;;;13.27;46.94;99353.16;4925891;28;97830;-61
2022/04/05 07:22:18;;;;;;;;;;;;;;;13.35;47.23;99357.81;4922016;28;127729;-61
2022/04/05 07:24:44;;;;;;;;;;;;;;;13.38;47.17;99346.38;4938380;28;98629;-61
2022/04/05 07:27:10;;;;;;;;;;;;;;;13.43;47.18;99362.47;4943031;28;98046;-61
2022/04/05 07:29:36;;;;;;;;;;;;;;;13.49;47.13;99358.53;4943727;28;97725;-61
2022/04/05 07:32:02;;;;;;;;;;;;;;;13.52;46.99;99359.81;4942562;28;128248;-61
2022/04/05 07:34:28;;;;;;;;;;;;;;;13.57;47.00;99365.09;4936963;28;98513;-61
2022/04/05 07:36:54;;;;;;;;;;;;;;;13.61;47.08;99374.19;4922834;28;127127;-61
2022/04/05 07:39:21;;;;;;;;;;;;;;;13.65;47.12;99366.22;4934036;28;97720;-61
2022/04/05 07:41:47;;;;;;;;;;;;;;;13.78;46.97;99367.22;4942391;28;98742;-61
2022/04/05 07:44:13;;;;;;;;;;;;;;;14.00;46.56;99357.06;4943090;28;104072;-61
2022/04/05 07:46:39;;;;;;;;;;;;;;;14.20;46.39;99354.84;4942827;28;98518;-61
2022/04/05 07:49:05;;;;;;;;;;;;;;;14.25;46.47;99357.41;4941885;28;116710;-61
2022/04/05 07:51:31;;;;;;;;;;;;;;;14.24;46.73;99358.53;4941515;28;128646;-61
2022/04/05 07:53:57;;;;;;;;;;;;;;;14.28;46.75;99358.69;4942277;28;127918;-61
2022/04/05 07:56:23;;;;;;;;;;;;;;;14.29;46.75;99361.06;4942546;28;98221;-61
2022/04/05 07:58:49;;;;;;;;;;;;;;;14.33;46.66;99369.38;4941749;28;115157;-61
2022/04/05 08:01:15;;;;;;;;;;;;;;;14.35;46.98;99367.16;4941921;28;125910;-61
2022/04/05 08:03:40;;;;;;;;;;;;;;;14.34;46.77;99368.25;4941370;28;128375;-61
2022/04/05 08:06:06;;;;;;;;;;;;;;;14.33;47.03;99370.16;4943306;28;98038;-61
2022/04/05 08:08:32;;;;;;;;;;;;;;;14.32;46.71;99371.28;4949510;28;117781;-61
2022/04/05 08:10:58;;;;;;;;;;;;;;;14.33;47.07;99381.00;4940996;28;128560;-61
2022/04/05 08:13:26;;;;;;;;;;;;;;;14.36;47.12;99385.00;4942473;28;128200;-61
2022/04/05 08:15:52;;;;;;;;;;;;;;;14.41;47.04;99374.78;4942009;28;97960;-61
2022/04/05 08:18:19;;;;;;;;;;;;;;;14.42;47.27;99381.00;4942438;28;101761;-61
2022/04/05 08:20:45;;;;;;;;;;;;;;;14.42;46.88;99381.81;4941740;28;98613;-62
2022/04/05 08:23:11;;;;;;;;;;;;;;;14.45;46.93;99377.66;4942065;28;127182;-61
2022/04/05 08:25:37;;;;;;;;;;;;;;;14.46;46.90;99380.06;4941456;28;126326;-61
2022/04/05 08:28:03;;;;;;;;;;;;;;;14.58;46.72;99384.06;4941614;28;98196;-61
2022/04/05 08:30:30;;;;;;;;;;;;;;;14.65;46.83;99395.22;4942449;28;99144;-61
2022/04/05 08:32:56;;;;;;;;;;;;;;;14.66;47.08;99394.94;4941435;28;114227;-61
2022/04/05 08:35:22;;;;;;;;;;;;;;;14.71;46.76;99400.19;4941906;28;98048;-62
2022/04/05 08:37:49;;;;;;;;;;;;;;;14.84;46.81;99397.63;4956684;28;98010;-61
2022/04/05 08:40:15;;;;;;;;;;;;;;;15.06;46.49;99397.44;4941410;28;98388;-62
2022/04/05 08:42:43;;;;;;;;;;;;;;;15.30;46.23;99404.22;4941518;28;99075;-61
2022/04/05 08:45:10;;;;;;;;;;;;;;;15.50;45.99;99408.16;4942369;28;101356;-62
2022/04/05 08:47:41;;;;;;;;;;;;;;;15.65;45.79;99410.38;4941745;28;97720;-61
2022/04/05 08:50:07;;;;;;;;;;;;;;;15.87;45.61;99410.09;4941712;28;98486;-61
2022/04/05 08:52:34;;;;;;;;;;;;;;;16.17;45.37;99418.25;4941389;28;98948;-62
2022/04/05 08:55:00;;;;;;;;;;;;;;;16.38;45.14;99419.03;4941999;28;98735;-63
2022/04/05 08:57:26;;;;;;;;;;;;;;;16.62;45.08;99423.84;4941453;28;105005;-61
2022/04/05 08:59:52;;;;;;;;;;;;;;;16.97;44.91;99423.56;4941398;28;117223;-62
2022/04/05 09:02:25;;;;;;;;;;;;;;;17.46;44.41;99429.16;4939119;28;125775;-62
2022/04/05 09:04:51;;;;;;;;;;;;;;;17.87;44.08;99424.66;4941826;28;98969;-62
2022/04/05 09:07:24;;;;;;;;;;;;;;;17.81;44.50;99426.84;4941338;28;97932;-62
2022/04/05 09:10:15;;;;;;;;;;;;;;;17.92;44.50;99429.91;4940755;28;98885;-61
2022/04/05 09:12:43;;;;;;;;;;;;;;;17.86;44.74;99439.44;4940644;28;126232;-62
2022/04/05 09:15:10;;;;;;;;;;;;;;;17.85;44.77;99440.56;4941784;28;98177;-62
2022/04/05 09:17:40;;;;;;;;;;;;;;;17.84;44.80;99441.69;4940624;28;112712;-62
2022/04/05 09:20:06;;;;;;;;;;;;;;;18.04;44.80;99437.28;4942056;28;98417;-62
2022/04/05 09:22:34;;;;;;;;;;;;;;;18.24;44.53;99450.00;4940355;28;125428;-62
2022/04/05 09:25:15;;;;;;;;;;;;;;;18.48;44.26;99440.19;4940979;28;97967;-62
2022/04/05 09:27:48;;;;;;;;;;;;;;;18.45;44.64;99447.09;4941025;28;98022;-62
2022/04/05 09:30:19;;;;;;;;;;;;;;;18.50;44.66;99454.25;4947096;28;97778;-62
2022/04/05 09:32:48;;;;;;;;;;;;;;;18.58;44.61;99445.94;4938800;28;113028;-62
2022/04/05 09:35:16;;;;;;;;;;;;;;;18.70;44.39;99441.59;4941207;28;98194;-61
2022/04/05 09:37:41;;;;;;;;;;;;;;;18.71;44.56;99446.75;4955956;28;97972;-62
2022/04/05 09:40:36;;;;;;;;;;;;;;;18.91;44.25;99444.19;4954765;28;127262;-62
2022/04/05 09:43:14;;;;;;;;;;;;;;;19.00;44.22;99442.06;4940918;28;98364;-61
2022/04/05 09:45:55;;;;;;;;;;;;;;;18.99;44.38;99445.97;4940989;28;98594;-61
2022/04/05 09:48:39;;;;;;;;;;;;;;;18.96;44.47;99441.97;4941579;28;97672;-61
2022/04/05 09:51:11;;;;;;;;;;;;;;;18.93;44.75;99450.06;4941262;28;99600;-61
2022/04/05 09:53:42;;;;;;;;;;;;;;;18.93;44.58;99452.81;4939092;28;99126;-61
2022/04/05 09:56:09;;;;;;;;;;;;;;;18.86;44.73;99450.66;4940052;28;121977;-61
2022/04/05 09:58:35;;;;;;;;;;;;;;;18.85;44.86;99452.59;4941490;28;97869;-61
2022/04/05 10:01:05;;;;;;;;;;;;;;;18.77;44.85;99441.81;4939815;28;127509;-61
2022/04/05 10:03:30;;;;;;;;;;;;;;;18.83;44.89;99451.38;4941101;28;98835;-61
2022/04/05 10:05:56;;;;;;;;;;;;;;;18.72;44.86;99451.06;4937825;28;128094;-61
2022/04/05 10:08:22;;;;;;;;;;;;;;;18.70;45.12;99452.50;4937962;28;117394;-61
2022/04/05 10:10:48;;;;;;;;;;;;;;;18.75;44.94;99442.19;4953564;28;124798;-61
2022/04/05 10:13:14;;;;;;;;;;;;;;;18.96;44.49;99435.72;4955174;28;127484;-61
2022/04/05 10:15:40;;;;;;;;;;;;;;;19.51;43.96;99434.84;4941323;28;98734;-61
2022/04/05 10:18:06;;;;;;;;;;;;;;;19.43;44.03;99444.03;4938234;28;115372;-61
2022/04/05 10:20:33;;;;;;;;;;;;;;;19.30;44.47;99447.97;4940281;28;98744;-61
2022/04/05 10:23:01;;;;;;;;;;;;;;;19.14;44.76;99445.22;4938561;28;98263;-61
2022/04/05 10:25:27;;;;;;;;;;;;;;;19.08;44.83;99450.13;4939642;28;97950;-61
2022/04/05 10:27:53;;;;;;;;;;;;;;;19.04;44.83;99457.41;4940659;28;97843;-61
2022/04/05 10:30:28;;;;;;;;;;;;;;;18.89;45.04;99450.75;4939528;28;128509;-61
2022/04/05 10:33:08;;;;;;;;;;;;;;;18.92;45.03;99456.69;4954748;28;98664;-61
2022/04/05 10:35:42;;;;;;;;;;;;;;;18.90;44.86;99457.00;4938653;28;99036;-61
2022/04/05 10:38:13;;;;;;;;;;;;;;;18.91;44.78;99447.69;4937216;28;97919;-62
2022/04/05 10:40:39;;;;;;;;;;;;;;;18.86;45.08;99453.38;4940195;28;98435;-61
2022/04/05 10:43:18;;;;;;;;;;;;;;;18.79;45.11;99459.47;4939863;28;103360;-61
2022/04/05 10:45:44;;;;;;;;;;;;;;;18.80;45.08;99457.50;4942331;28;98711;-62
2022/04/05 10:48:12;;;;;;;;;;;;;;;19.07;44.62;99448.53;4944404;28;97880;-62
2022/04/05 10:50:42;;;;;;;;;;;;;;;18.95;44.70;99458.72;4943493;28;98160;-62
2022/04/05 10:53:22;;;;;;;;;;;;;;;18.93;44.96;99463.72;4943387;28;98710;-62
2022/04/05 10:56:07;;;;;;;;;;;;;;;18.94;44.91;99457.09;4943546;28;98007;-62
2022/04/05 10:58:48;;;;;;;;;;;;;;;18.93;44.85;99453.59;4943653;28;97703;-62
2022/04/05 11:01:24;;;;;;;;;;;;;;;18.87;45.00;99453.06;4943135;28;98802;-62
2022/04/05 11:04:21;;;;;;;;;;;;;;;18.81;44.83;99451.69;4942119;28;126118;-63
2022/04/05 11:07:02;;;;;;;;;;;;;;;18.68;45.28;99461.03;4943486;28;98053;-62
2022/04/05 11:09:35;;;;;;;;;;;;;;;18.59;45.13;99465.84;4936725;28;98170;-62
2022/04/05 11:12:02;;;;;;;;;;;;;;;18.56;45.23;99463.81;4944080;28;98181;-62
2022/04/05 11:14:40;;;;;;;;;;;;;;;18.41;45.38;99468.03;4941626;28;128797;-62
2022/04/05 11:17:07;;;;;;;;;;;;;;;18.24;45.38;99466.34;4943387;28;97875;-62
2022/04/05 11:19:37;;;;;;;;;;;;;;;18.15;45.47;99471.13;4942847;28;98216;-62
2022/04/05 11:22:07;;;;;;;;;;;;;;;18.07;45.46;99478.28;4942921;28;99596;-62
2022/04/05 11:24:53;;;;;;;;;;;;;;;18.00;45.57;99472.63;4939657;28;122713;-62
2022/04/05 11:27:29;;;;;;;;;;;;;;;18.03;45.48;99477.38;4942628;28;97900;-62
2022/04/05 11:30:23;;;;;;;;;;;;;;;18.00;45.41;99477.25;4944196;28;97960;-63
2022/04/05 11:33:14;;;;;;;;;;;;;;;17.86;45.64;99472.16;4942929;28;98466;-62
2022/04/05 11:35:56;;;;;;;;;;;;;;;17.80;45.61;99476.22;4923336;28;99179;-62
2022/04/05 11:38:22;;;;;;;;;;;;;;;17.77;45.47;99469.53;4927421;28;98239;-62
2022/04/05 11:40:54;;;;;;;;;;;;;;;17.73;45.52;99471.31;4942754;28;98322;-62
2022/04/05 11:43:30;;;;;;;;;;;;;;;17.72;45.54;99464.25;4942537;28;99169;-62
2022/04/05 11:46:00;;;;;;;;;;;;;;;17.91;45.13;99469.19;4941078;28;99709;-62
2022/04/05 11:48:26;;;;;;;;;;;;;;;18.19;44.71;99468.50;4957610;28;102333;-62
2022/04/05 11:50:52;;;;;;;;;;;;;;;18.62;44.21;99468.66;4942288;28;98114;-63
2022/04/05 11:53:23;;;;;;;;;;;;;;;19.29;43.39;99452.63;4940095;28;98340;-62
2022/04/05 11:56:23;;;;;;;;;;;;;;;19.28;43.67;99458.44;4940981;28;98832;-62
2022/04/05 11:58:51;;;;;;;;;;;;;;;19.35;43.76;99458.63;4925354;28;98538;-62
2022/04/05 12:01:28;;;;;;;;;;;;;;;19.32;44.11;99462.84;4943753;28;98100;-62
2022/04/05 12:03:57;;;;;;;;;;;;;;;19.31;44.08;99453.06;4943629;28;98931;-62
2022/04/05 12:06:24;;;;;;;;;;;;;;;19.33;43.96;99467.16;4942358;28;98485;-62
2022/04/05 12:08:52;;;;;;;;;;;;;;;19.47;43.76;99457.78;4965336;28;98084;-62
2022/04/05 12:11:22;;;;;;;;;;;;;;;20.28;42.87;99463.69;4943279;28;97982;-62
2022/04/05 12:13:52;;;;;;;;;;;;;;;21.44;41.45;99441.84;4942648;28;98559;-62
2022/04/05 12:16:18;;;;;;;;;;;;;;;21.61;41.68;99447.97;4942113;28;99002;-63
2022/04/05 12:18:44;;;;;;;;;;;;;;;21.65;42.12;99451.59;4942631;28;97751;-63
2022/04/05 12:21:10;;;;;;;;;;;;;;;21.54;42.57;99454.16;4941601;28;116691;-62
2022/04/05 12:23:38;;;;;;;;;;;;;;;21.24;42.98;99448.47;4941859;28;98210;-63
2022/04/05 12:26:05;;;;;;;;;;;;;;;20.90;43.47;99453.69;4941356;28;98262;-63
2022/04/05 12:28:32;;;;;;;;;;;;;;;20.64;43.85;99453.56;4942061;28;98656;-62
2022/04/05 12:31:05;;;;;;;;;;;;;;;20.42;43.87;99452.25;4942181;28;98116;-62
2022/04/05 12:33:31;;;;;;;;;;;;;;;20.20;44.11;99453.72;4942131;28;99112;-62
2022/04/05 12:35:57;;;;;;;;;;;;;;;19.99;44.09;99448.53;4941972;28;99396;-62
2022/04/05 12:38:23;;;;;;;;;;;;;;;19.84;44.24;99450.13;4956179;28;98011;-62
2022/04/05 12:40:49;;;;;;;;;;;;;;;19.67;44.47;99459.50;4941060;28;116795;-62
2022/04/05 12:43:16;;;;;;;;;;;;;;;19.43;44.52;99456.88;4939385;28;128812;-62
2022/04/05 12:45:42;;;;;;;;;;;;;;;19.25;44.66;99453.69;4939555;28;99372;-63